Time;durP1;ratioP1;P1;durP2;ratioP2;P2;SDS_P1;SDS_P2;PMS_P1;PMS_P2;Temp;Humidity;BMP_temperature;BMP_pressure;BME280_temperature;BME280_humidity;BME280_pressure;Samples;Min_cycle;Max_cycle;Signal;HPM_P1;HPM_P2
2023/07/14 00:01:25;;;;;;;3.37;1.57;;;25.20;79.80;;;;;;4868084;29;20026;-82
2023/07/14 00:03:52;;;;;;;4.70;1.30;;;25.20;80.10;;;;;;4867065;29;20053;-82
2023/07/14 00:06:18;;;;;;;2.20;1.30;;;25.10;80.20;;;;;;4876558;29;20041;-82
2023/07/14 00:08:45;;;;;;;2.08;1.33;;;25.10;80.70;;;;;;4878019;29;20025;-82
2023/07/14 00:11:13;;;;;;;;;;;25.10;81.20;;;;;;4878881;29;20101;-82
2023/07/14 00:13:39;;;;;;;3.75;1.52;;;25.10;82.10;;;;;;4871243;29;19955;-82
2023/07/14 00:16:18;;;;;;;4.20;1.43;;;25.00;81.60;;;;;;4873507;29;20066;-82
2023/07/14 00:18:44;;;;;;;4.57;2.90;;;25.10;82.20;;;;;;4877887;29;20048;-82
2023/07/14 00:21:22;;;;;;;5.60;1.73;;;25.10;82.30;;;;;;4867174;29;20033;-82
2023/07/14 00:23:49;;;;;;;3.92;1.67;;;25.10;82.70;;;;;;4863951;29;20033;-82
2023/07/14 00:26:20;;;;;;;3.72;2.17;;;25.10;82.60;;;;;;4863999;29;20041;-82
2023/07/14 00:28:49;;;;;;;6.15;2.30;;;25.20;82.80;;;;;;4874382;29;20048;-82
2023/07/14 00:31:23;;;;;;;2.85;1.80;;;25.10;83.40;;;;;;4874326;29;20033;-82
2023/07/14 00:33:51;;;;;;;3.50;2.00;;;25.10;84.50;;;;;;4874216;29;20037;-82
2023/07/14 00:36:17;;;;;;;2.90;1.90;;;25.00;85.00;;;;;;4868761;29;20100;-82
2023/07/14 00:38:44;;;;;;;3.55;2.28;;;25.00;85.50;;;;;;4878077;29;20025;-82
2023/07/14 00:41:17;;;;;;;3.33;1.77;;;25.00;85.90;;;;;;4866415;29;20022;-82
2023/07/14 00:43:44;;;;;;;5.80;2.10;;;25.00;86.40;;;;;;4862133;29;20086;-82
2023/07/14 00:46:23;;;;;;;5.72;2.33;;;25.00;86.70;;;;;;4868506;29;20517;-82
2023/07/14 00:48:50;;;;;;;3.20;2.40;;;24.90;87.40;;;;;;4864996;29;20037;-82
2023/07/14 00:51:17;;;;;;;5.20;2.50;;;24.90;87.50;;;;;;4865012;29;20123;-82
2023/07/14 00:53:44;;;;;;;3.03;2.30;;;24.90;87.90;;;;;;4864847;29;20390;-82
2023/07/14 00:56:10;;;;;;;5.70;2.50;;;24.80;88.30;;;;;;4864946;29;20025;-82
2023/07/14 00:58:49;;;;;;;7.87;2.33;;;24.80;88.60;;;;;;4881461;29;20052;-82
2023/07/14 01:01:22;;;;;;;3.63;1.92;;;24.70;88.60;;;;;;4881763;29;20495;-82
2023/07/14 01:03:55;;;;;;;2.92;2.10;;;24.70;89.40;;;;;;4881935;29;20376;-82
2023/07/14 01:06:25;;;;;;;3.63;2.20;;;24.60;89.40;;;;;;4883377;29;20041;-82
2023/07/14 01:08:58;;;;;;;4.55;2.10;;;24.60;90.00;;;;;;4881242;29;20397;-82
2023/07/14 01:11:30;;;;;;;3.58;2.60;;;24.60;90.20;;;;;;4899767;29;20573;-82
2023/07/14 01:14:00;;;;;;;2.80;2.03;;;24.60;90.20;;;;;;4858239;29;20028;-82
2023/07/14 01:16:28;;;;;;;7.18;2.63;;;24.50;90.40;;;;;;4876227;29;20445;-82
2023/07/14 01:18:55;;;;;;;4.13;2.60;;;24.50;90.60;;;;;;4882829;29;20036;-82
2023/07/14 01:21:22;;;;;;;6.85;2.25;;;24.60;90.60;;;;;;4865789;29;20029;-82
2023/07/14 01:23:54;;;;;;;6.30;3.05;;;24.60;90.80;;;;;;4877229;29;20524;-82
2023/07/14 01:26:44;;;;;;;4.47;2.67;;;24.70;91.00;;;;;;4872966;29;20085;-82
2023/07/14 01:29:10;;;;;;;8.35;2.45;;;24.70;90.80;;;;;;4878017;29;20379;-82
2023/07/14 01:31:36;;;;;;;5.47;2.45;;;24.80;90.90;;;;;;4871262;29;20124;-82
2023/07/14 01:34:02;;;;;;;3.13;2.70;;;24.80;90.80;;;;;;4867163;29;20036;-82
2023/07/14 01:36:28;;;;;;;4.32;2.88;;;24.80;90.90;;;;;;4872448;29;20089;-82
2023/07/14 01:38:55;;;;;;;7.15;2.80;;;24.80;90.90;;;;;;4883106;29;20029;-82
2023/07/14 01:41:22;;;;;;;4.15;2.92;;;24.80;91.00;;;;;;4889330;29;20386;-82
2023/07/14 01:43:51;;;;;;;3.42;2.47;;;24.90;91.00;;;;;;4870327;29;20052;-82
2023/07/14 01:46:22;;;;;;;7.35;2.85;;;24.90;91.10;;;;;;4863933;29;20029;-82
2023/07/14 01:48:58;;;;;;;4.07;3.28;;;24.90;91.30;;;;;;4877356;29;20518;-82
2023/07/14 01:51:27;;;;;;;4.63;2.80;;;24.90;90.90;;;;;;4877499;29;20056;-82
2023/07/14 01:54:04;;;;;;;4.90;3.08;;;24.90;91.10;;;;;;4864008;29;20033;-82
2023/07/14 01:56:32;;;;;;;4.13;2.88;;;24.90;91.00;;;;;;4887481;29;20043;-82
2023/07/14 01:59:08;;;;;;;8.25;3.10;;;24.90;91.30;;;;;;4882412;29;20039;-82
2023/07/14 02:01:38;;;;;;;4.55;3.03;;;24.90;91.60;;;;;;4882690;29;20029;-82
2023/07/14 02:04:07;;;;;;;13.30;3.60;;;24.80;91.50;;;;;;4876652;29;20064;-82
2023/07/14 02:06:34;;;;;;;5.13;2.80;;;24.80;91.70;;;;;;4884518;29;20390;-82
2023/07/14 02:09:00;;;;;;;5.25;3.42;;;24.80;91.70;;;;;;4898519;29;20039;-82
2023/07/14 02:11:27;;;;;;;7.50;3.53;;;24.80;91.70;;;;;;4863672;29;20033;-82
2023/07/14 02:13:55;;;;;;;3.85;3.22;;;24.70;91.70;;;;;;4894318;29;20156;-82
2023/07/14 02:16:22;;;;;;;9.70;3.20;;;24.80;91.90;;;;;;4883966;29;20033;-82
2023/07/14 02:18:49;;;;;;;6.70;3.55;;;24.80;91.80;;;;;;4876692;29;20041;-82
2023/07/14 02:21:23;;;;;;;5.10;3.40;;;24.80;91.90;;;;;;4880937;29;20037;-82
2023/07/14 02:23:49;;;;;;;8.02;4.40;;;24.80;92.00;;;;;;4864003;29;20127;-83
2023/07/14 02:26:32;;;;;;;8.70;4.18;;;24.70;92.10;;;;;;4867108;29;20120;-82
2023/07/14 02:28:58;;;;;;;6.82;3.60;;;24.70;92.30;;;;;;4866656;29;20028;-82
2023/07/14 02:31:39;;;;;;;5.32;3.88;;;24.70;92.40;;;;;;4871567;29;20087;-83
2023/07/14 02:34:09;;;;;;;9.25;3.67;;;24.60;92.70;;;;;;4864515;29;20033;-82
2023/07/14 02:36:55;;;;;;;9.23;4.00;;;24.50;92.70;;;;;;4883316;29;20031;-82
2023/07/14 02:39:21;;;;;;;12.20;4.50;;;24.50;92.60;;;;;;4882079;29;20025;-82
2023/07/14 02:41:48;;;;;;;9.50;4.70;;;24.50;93.00;;;;;;4868072;29;20089;-82
2023/07/14 02:44:17;;;;;;;6.82;3.90;;;24.50;93.10;;;;;;4863371;29;20052;-82
2023/07/14 02:47:00;;;;;;;7.78;3.72;;;24.50;93.10;;;;;;4874901;29;20128;-82
2023/07/14 02:49:26;;;;;;;6.15;3.70;;;24.50;93.00;;;;;;4881431;29;20040;-82
2023/07/14 02:51:54;;;;;;;6.05;3.95;;;24.50;93.10;;;;;;4884109;29;20081;-82
2023/07/14 02:54:20;;;;;;;4.83;3.90;;;24.50;93.00;;;;;;4871625;29;20430;-82
2023/07/14 02:56:46;;;;;;;9.03;4.03;;;24.40;92.90;;;;;;4863875;29;20032;-82
2023/07/14 02:59:13;;;;;;;4.57;4.07;;;24.40;93.00;;;;;;4881341;29;20513;-82
2023/07/14 03:01:40;;;;;;;4.05;3.60;;;24.40;92.90;;;;;;4884516;29;20076;-82
2023/07/14 03:04:05;;;;;;;5.97;3.70;;;24.40;93.00;;;;;;4862917;29;20084;-82
2023/07/14 03:06:31;;;;;;;5.30;3.77;;;24.40;93.00;;;;;;4866952;29;20068;-82
2023/07/14 03:08:57;;;;;;;6.95;3.95;;;24.40;93.10;;;;;;4865431;29;20037;-82
2023/07/14 03:11:23;;;;;;;6.37;3.93;;;24.40;93.10;;;;;;4869535;29;20043;-82
2023/07/14 03:13:51;;;;;;;4.75;3.85;;;24.50;93.10;;;;;;4866904;29;20049;-82
2023/07/14 03:16:17;;;;;;;9.80;4.18;;;24.50;93.20;;;;;;4896362;29;20052;-82
2023/07/14 03:18:43;;;;;;;5.60;4.17;;;24.50;93.20;;;;;;4870725;29;20029;-82
2023/07/14 03:21:09;;;;;;;7.50;3.67;;;24.50;93.30;;;;;;4892502;29;20364;-82
2023/07/14 03:23:35;;;;;;;6.93;3.65;;;24.50;93.30;;;;;;4896514;29;20036;-82
2023/07/14 03:26:07;;;;;;;6.17;4.07;;;24.40;93.40;;;;;;4893626;29;20064;-82
2023/07/14 03:28:34;;;;;;;4.95;3.45;;;24.40;93.40;;;;;;4862338;29;20037;-82
2023/07/14 03:31:01;;;;;;;6.45;3.80;;;24.30;93.50;;;;;;4879290;29;20539;-83
2023/07/14 03:33:28;;;;;;;4.45;4.05;;;24.30;93.50;;;;;;4848529;29;20454;-82
2023/07/14 03:35:54;;;;;;;5.72;3.53;;;24.30;93.70;;;;;;4889399;29;20031;-82
2023/07/14 03:38:19;;;;;;;7.23;4.07;;;24.30;93.80;;;;;;4862052;29;20037;-82
2023/07/14 03:40:45;;;;;;;3.70;2.90;;;24.30;93.90;;;;;;4864937;29;20434;-82
2023/07/14 03:43:11;;;;;;;5.70;2.80;;;24.30;93.70;;;;;;4880690;29;20028;-83
2023/07/14 03:45:37;;;;;;;4.43;2.80;;;24.30;93.70;;;;;;4878966;29;20111;-86
2023/07/14 03:48:03;;;;;;;6.83;3.10;;;24.30;93.80;;;;;;4934351;23;20450;-82
2023/07/14 03:50:30;;;;;;;4.18;2.38;;;24.30;93.70;;;;;;4900527;29;20029;-82
2023/07/14 03:52:56;;;;;;;9.77;2.92;;;24.30;93.80;;;;;;4900462;29;20056;-83
2023/07/14 03:55:22;;;;;;;2.03;1.73;;;24.30;94.10;;;;;;4880185;29;20056;-83
2023/07/14 03:57:48;;;;;;;4.30;2.30;;;24.20;93.70;;;;;;4880014;29;20396;-83
2023/07/14 04:00:17;;;;;;;3.77;2.40;;;24.20;93.80;;;;;;4880300;29;20029;-83
2023/07/14 04:02:46;;;;;;;4.03;2.03;;;24.30;93.90;;;;;;4897540;29;20313;-83
2023/07/14 04:05:13;;;;;;;3.42;1.92;;;24.30;93.90;;;;;;4880402;29;20028;-83
2023/07/14 04:07:41;;;;;;;5.60;2.58;;;24.30;93.90;;;;;;4865827;29;20033;-83
2023/07/14 04:10:08;;;;;;;2.95;2.28;;;24.40;93.80;;;;;;4879523;29;20060;-82
2023/07/14 04:12:36;;;;;;;6.13;2.13;;;24.30;93.70;;;;;;4896725;29;20029;-82
2023/07/14 04:15:01;;;;;;;4.05;2.08;;;24.30;93.50;;;;;;4863618;29;20518;-83
2023/07/14 04:17:29;;;;;;;3.70;2.07;;;24.40;93.60;;;;;;4879315;29;20040;-83
2023/07/14 04:19:55;;;;;;;2.05;1.70;;;24.40;93.40;;;;;;4879341;29;20044;-82
2023/07/14 04:22:21;;;;;;;3.88;2.10;;;24.40;93.40;;;;;;4879336;29;20040;-82
2023/07/14 04:24:47;;;;;;;2.97;1.83;;;24.40;93.30;;;;;;4879825;29;20393;-83
2023/07/14 04:27:14;;;;;;;4.03;1.87;;;24.30;93.20;;;;;;4879868;29;20085;-82
2023/07/14 04:29:40;;;;;;;3.40;1.77;;;24.30;93.40;;;;;;4864645;29;20288;-82
2023/07/14 04:32:07;;;;;;;5.80;2.13;;;24.30;93.40;;;;;;4896826;29;20028;-82
2023/07/14 04:34:34;;;;;;;;;;;24.30;93.50;;;;;;4864873;29;20041;-82
2023/07/14 04:37:00;;;;;;;2.50;1.80;;;24.30;93.60;;;;;;4879774;29;20369;-82
2023/07/14 04:39:27;;;;;;;6.43;1.83;;;24.30;93.50;;;;;;4880140;29;20041;-83
2023/07/14 04:41:54;;;;;;;2.60;1.52;;;24.30;93.40;;;;;;4880102;29;20560;-82
2023/07/14 04:44:20;;;;;;;2.63;1.83;;;24.30;93.50;;;;;;4864575;29;20037;-82
2023/07/14 04:46:46;;;;;;;5.23;1.90;;;24.30;93.30;;;;;;4879576;29;20051;-82
2023/07/14 04:49:15;;;;;;;2.08;1.52;;;24.30;93.30;;;;;;4879901;29;20036;-82
2023/07/14 04:51:41;;;;;;;7.43;1.63;;;24.40;93.10;;;;;;4879744;29;20037;-82
2023/07/14 04:54:07;;;;;;;2.03;1.53;;;24.40;93.10;;;;;;4879691;29;20603;-82
2023/07/14 04:56:34;;;;;;;3.13;1.73;;;24.40;93.10;;;;;;4864275;29;20040;-82
2023/07/14 04:59:00;;;;;;;2.75;1.77;;;24.50;93.10;;;;;;4879597;29;20571;-82
2023/07/14 05:01:27;;;;;;;4.97;1.67;;;24.50;93.10;;;;;;4879910;29;20120;-82
2023/07/14 05:03:53;;;;;;;1.88;1.65;;;24.60;92.90;;;;;;4896876;29;20036;-83
2023/07/14 05:06:20;;;;;;;4.20;2.25;;;24.70;92.80;;;;;;4879625;29;20080;-83
2023/07/14 05:08:46;;;;;;;3.25;1.50;;;24.70;92.60;;;;;;4879607;29;20087;-83
2023/07/14 05:11:12;;;;;;;2.87;1.30;;;24.70;92.50;;;;;;4879828;29;20033;-83
2023/07/14 05:13:38;;;;;;;7.03;1.90;;;24.70;92.50;;;;;;4896426;29;20033;-83
2023/07/14 05:16:19;;;;;;;2.70;1.53;;;24.80;92.40;;;;;;4896924;29;20036;-83
2023/07/14 05:18:46;;;;;;;3.38;1.70;;;24.80;92.30;;;;;;4864492;29;20031;-83
2023/07/14 05:21:12;;;;;;;3.22;1.42;;;24.80;92.40;;;;;;4880153;29;20069;-83
2023/07/14 05:23:38;;;;;;;2.85;1.85;;;24.90;92.40;;;;;;4880462;29;20373;-83
2023/07/14 05:26:03;;;;;;;11.30;1.93;;;25.00;92.20;;;;;;4865116;29;20066;-83
2023/07/14 05:28:29;;;;;;;2.83;1.83;;;25.00;92.10;;;;;;4883927;29;20497;-83
2023/07/14 05:30:58;;;;;;;2.50;1.40;;;25.20;92.10;;;;;;4900556;29;20040;-83
2023/07/14 05:33:23;;;;;;;3.70;1.65;;;25.20;91.90;;;;;;4883492;29;20032;-83
2023/07/14 05:35:49;;;;;;;4.63;1.97;;;25.30;91.60;;;;;;4884126;29;20040;-83
2023/07/14 05:38:16;;;;;;;3.93;1.70;;;25.40;91.50;;;;;;4869073;29;20046;-82
2023/07/14 05:40:42;;;;;;;5.15;1.92;;;25.40;91.50;;;;;;4900812;29;20021;-82
2023/07/14 05:43:07;;;;;;;3.73;1.50;;;25.60;91.30;;;;;;4901100;29;20025;-83
2023/07/14 05:45:33;;;;;;;3.90;1.73;;;25.70;91.20;;;;;;4883655;29;20123;-82
2023/07/14 05:47:59;;;;;;;4.38;2.22;;;25.70;91.00;;;;;;4883048;29;20080;-83
2023/07/14 05:50:25;;;;;;;3.87;1.90;;;25.70;91.10;;;;;;4883868;29;20048;-83
2023/07/14 05:52:51;;;;;;;2.75;1.92;;;25.80;91.10;;;;;;4875694;29;20064;-83
2023/07/14 05:55:17;;;;;;;2.97;2.27;;;25.90;91.10;;;;;;4888583;29;20569;-83
2023/07/14 05:57:43;;;;;;;6.70;2.20;;;26.00;90.90;;;;;;4883547;29;20108;-83
2023/07/14 06:00:16;;;;;;;3.58;2.20;;;26.00;90.80;;;;;;4882826;29;20374;-83
2023/07/14 06:02:46;;;;;;;14.90;3.15;;;26.00;90.80;;;;;;4866947;29;20043;-83
2023/07/14 06:05:13;;;;;;;8.25;2.15;;;26.00;91.00;;;;;;4867039;29;20501;-83
2023/07/14 06:07:40;;;;;;;8.63;2.92;;;26.10;90.70;;;;;;4882166;29;20536;-83
2023/07/14 06:10:06;;;;;;;;;;;26.00;90.70;;;;;;4899536;29;20119;-83
2023/07/14 06:12:33;;;;;;;4.47;2.63;;;26.00;90.70;;;;;;4866770;29;19912;-83
2023/07/14 06:14:58;;;;;;;4.90;2.55;;;25.90;90.60;;;;;;4882225;29;20032;-83
2023/07/14 06:17:24;;;;;;;6.17;2.43;;;25.90;90.80;;;;;;4882038;29;20029;-83
2023/07/14 06:19:50;;;;;;;8.33;2.63;;;25.90;90.80;;;;;;4866609;29;20277;-83
2023/07/14 06:22:16;;;;;;;10.45;2.90;;;25.90;90.90;;;;;;4866587;29;20035;-83
2023/07/14 06:24:42;;;;;;;7.93;2.80;;;25.90;91.00;;;;;;4881995;29;20036;-83
2023/07/14 06:27:08;;;;;;;3.00;2.53;;;25.90;91.30;;;;;;4898678;29;20035;-83
2023/07/14 06:29:34;;;;;;;6.88;2.90;;;26.00;91.10;;;;;;4898784;29;20040;-83
2023/07/14 06:32:01;;;;;;;7.32;2.97;;;25.90;91.40;;;;;;4881902;29;20516;-84
2023/07/14 06:34:27;;;;;;;7.55;3.25;;;26.00;91.10;;;;;;4881842;29;20059;-83
2023/07/14 06:36:53;;;;;;;10.40;3.60;;;25.90;90.60;;;;;;4881474;29;20513;-83
2023/07/14 06:39:20;;;;;;;5.17;2.70;;;25.90;90.30;;;;;;4881650;29;20029;-83
2023/07/14 06:41:46;;;;;;;6.85;3.65;;;25.80;90.20;;;;;;4881648;29;20032;-83
2023/07/14 06:44:12;;;;;;;6.78;3.50;;;25.80;90.10;;;;;;4881723;29;20077;-83
2023/07/14 06:46:38;;;;;;;6.80;3.28;;;25.90;90.10;;;;;;4881318;29;20512;-83
2023/07/14 06:49:04;;;;;;;6.07;4.10;;;25.90;90.30;;;;;;4882071;29;20032;-83
2023/07/14 06:51:30;;;;;;;6.93;3.37;;;25.90;90.50;;;;;;4881811;29;20036;-83
2023/07/14 06:53:56;;;;;;;8.93;4.13;;;25.90;90.30;;;;;;4881416;29;20445;-83
2023/07/14 06:56:23;;;;;;;8.70;3.35;;;25.90;90.30;;;;;;4865857;29;20383;-83
2023/07/14 06:58:49;;;;;;;11.15;4.57;;;25.90;90.30;;;;;;4898057;29;20028;-83
2023/07/14 07:01:16;;;;;;;7.70;3.63;;;25.90;90.40;;;;;;4865888;29;20084;-83
2023/07/14 07:03:43;;;;;;;6.90;3.75;;;25.90;90.30;;;;;;4865860;29;20483;-83
2023/07/14 07:06:09;;;;;;;6.60;3.85;;;25.90;90.10;;;;;;4865748;29;20410;-83
2023/07/14 07:08:35;;;;;;;4.88;3.47;;;25.90;90.40;;;;;;4881099;29;20036;-83
2023/07/14 07:11:01;;;;;;;8.63;4.07;;;25.90;90.50;;;;;;4897992;29;20033;-83
2023/07/14 07:13:27;;;;;;;8.03;4.17;;;26.10;90.30;;;;;;4865597;29;20028;-83
2023/07/14 07:15:53;;;;;;;8.53;4.13;;;26.30;90.10;;;;;;4865449;29;20164;-83
2023/07/14 07:18:24;;;;;;;15.27;4.23;;;26.50;89.30;;;;;;4881015;29;20406;-88
2023/07/14 07:20:51;;;;;;;7.07;3.33;;;26.80;88.00;;;;;;4882176;29;20065;-82
2023/07/14 07:23:18;;;;;;;7.47;2.80;;;27.00;86.80;;;;;;4881709;29;20517;-85
2023/07/14 07:25:48;;;;;;;5.30;2.42;;;27.00;84.80;;;;;;4881276;29;20490;-85
2023/07/14 07:28:14;;;;;;;15.43;2.50;;;27.10;83.90;;;;;;4881160;29;20037;-86
2023/07/14 07:30:40;;;;;;;3.87;2.50;;;27.20;82.40;;;;;;4881455;29;20063;-86
2023/07/14 07:33:06;;;;;;;49.22;4.30;;;27.30;81.70;;;;;;4867532;29;20040;-88
2023/07/14 07:35:36;;;;;;;5.07;2.40;;;27.30;80.90;;;;;;4881943;29;20037;-87
2023/07/14 07:38:02;;;;;;;16.23;11.60;;;27.30;79.10;;;;;;4897698;29;20116;-88
2023/07/14 07:40:28;;;;;;;18.08;11.10;;;27.30;79.30;;;;;;4898042;29;20052;-87
2023/07/14 07:42:54;;;;;;;6.90;2.60;;;27.30;79.40;;;;;;4882582;29;20033;-83
2023/07/14 07:45:20;;;;;;;12.38;2.58;;;27.20;80.00;;;;;;4865862;29;20505;-83
2023/07/14 07:47:45;;;;;;;5.93;3.40;;;27.10;80.60;;;;;;4865629;29;20145;-83
2023/07/14 07:50:12;;;;;;;13.23;2.83;;;27.00;79.80;;;;;;4880585;29;20048;-82
2023/07/14 07:52:38;;;;;;;12.02;3.35;;;26.90;80.20;;;;;;4866156;29;20410;-84
2023/07/14 07:55:04;;;;;;;7.90;2.50;;;27.00;81.20;;;;;;4897818;29;20068;-83
2023/07/14 07:57:31;;;;;;;5.15;2.15;;;27.00;81.70;;;;;;4898080;29;20032;-84
2023/07/14 07:59:57;;;;;;;5.32;2.92;;;27.00;81.80;;;;;;4865845;29;20076;-84
2023/07/14 08:02:23;;;;;;;8.60;3.63;;;27.00;82.20;;;;;;4880705;29;20442;-83
2023/07/14 08:04:49;;;;;;;17.00;3.87;;;27.00;83.00;;;;;;4880675;29;20563;-84
2023/07/14 08:07:16;;;;;;;5.68;3.25;;;26.90;83.90;;;;;;4865900;29;20032;-89
2023/07/14 08:09:43;;;;;;;10.32;4.20;;;26.90;84.60;;;;;;4882659;29;20031;-88
2023/07/14 08:12:09;;;;;;;8.93;3.70;;;26.90;86.50;;;;;;4867058;29;20038;-89
2023/07/14 08:14:52;;;;;;;7.07;3.20;;;26.80;90.30;;;;;;4867960;29;20506;-89
2023/07/14 08:17:26;;;;;;;10.35;3.95;;;26.90;91.10;;;;;;4880622;29;20047;-86
2023/07/14 08:19:52;;;;;;;5.75;3.10;;;26.90;91.30;;;;;;4880053;29;20476;-86
2023/07/14 08:22:20;;;;;;;4.47;3.78;;;26.90;90.60;;;;;;4880562;29;20394;-86
2023/07/14 08:24:46;;;;;;;9.02;3.45;;;26.90;90.90;;;;;;4896977;29;20119;-86
2023/07/14 08:27:12;;;;;;;6.03;3.40;;;26.90;91.60;;;;;;4880188;29;20128;-86
2023/07/14 08:29:38;;;;;;;4.30;3.53;;;26.70;91.60;;;;;;4880261;29;20123;-87
2023/07/14 08:32:04;;;;;;;5.90;3.80;;;26.70;92.30;;;;;;4880453;29;20443;-87
2023/07/14 08:34:29;;;;;;;6.53;3.67;;;26.80;92.00;;;;;;4880263;29;20033;-87
2023/07/14 08:36:56;;;;;;;4.47;4.03;;;26.70;92.10;;;;;;4880179;29;20036;-87
2023/07/14 08:39:21;;;;;;;7.25;4.00;;;26.70;92.40;;;;;;4896911;29;20394;-87
2023/07/14 08:41:53;;;;;;;3.60;3.13;;;26.70;92.30;;;;;;4880328;29;20056;-87
2023/07/14 08:44:37;;;;;;;7.20;2.92;;;26.70;91.60;;;;;;4880046;29;20090;-87
2023/07/14 08:47:23;;;;;;;4.78;2.60;;;26.80;91.20;;;;;;4864658;29;20041;-86
2023/07/14 08:50:10;;;;;;;4.93;2.72;;;26.90;91.10;;;;;;4864686;29;20036;-86
2023/07/14 08:52:38;;;;;;;6.07;2.78;;;26.90;90.60;;;;;;4896916;29;20533;-86
2023/07/14 08:55:12;;;;;;;4.93;1.95;;;27.00;90.80;;;;;;4880238;29;20025;-87
2023/07/14 08:58:12;;;;;;;5.90;2.10;;;27.10;90.10;;;;;;4879742;29;20029;-86
2023/07/14 09:00:50;;;;;;;4.97;2.13;;;27.20;90.00;;;;;;4881058;29;20060;-85
2023/07/14 09:03:24;;;;;;;9.88;2.55;;;27.40;89.50;;;;;;4885106;29;20037;-83
2023/07/14 09:05:57;;;;;;;7.22;2.50;;;27.50;88.10;;;;;;4868582;29;20032;-82
2023/07/14 09:08:27;;;;;;;2.13;1.60;;;27.60;86.90;;;;;;4902137;29;20080;-82
2023/07/14 09:11:17;;;;;;;5.25;1.17;;;27.70;83.90;;;;;;4896133;29;20036;-82
2023/07/14 09:13:43;;;;;;;3.30;1.63;;;27.70;80.60;;;;;;4902564;29;20057;-82
2023/07/14 09:16:11;;;;;;;2.43;1.50;;;27.70;80.10;;;;;;4902622;29;20128;-82
2023/07/14 09:18:37;;;;;;;2.92;1.80;;;27.70;79.00;;;;;;4885562;29;20096;-82
2023/07/14 09:21:18;;;;;;;5.53;1.73;;;27.70;78.70;;;;;;4902509;29;20037;-82
2023/07/14 09:24:02;;;;;;;6.88;1.85;;;27.90;78.70;;;;;;4901505;29;20124;-82
2023/07/14 09:26:58;;;;;;;7.03;2.08;;;28.10;78.80;;;;;;4869136;29;20080;-82
2023/07/14 09:29:37;;;;;;;6.13;1.50;;;28.30;76.40;;;;;;4882170;29;20040;-82
2023/07/14 09:32:11;;;;;;;3.90;1.90;;;28.50;74.80;;;;;;4902723;29;20036;-82
2023/07/14 09:34:42;;;;;;;6.90;1.80;;;28.70;74.00;;;;;;4885097;29;20505;-82
2023/07/14 09:37:20;;;;;;;6.55;1.70;;;29.00;72.80;;;;;;4885024;29;20056;-82
2023/07/14 09:39:46;;;;;;;;;;;29.30;71.50;;;;;;4903424;29;20033;-82
2023/07/14 09:42:31;;;;;;;4.95;2.13;;;29.40;69.70;;;;;;4902790;29;19914;-82
2023/07/14 09:45:08;;;;;;;5.90;2.17;;;29.60;71.10;;;;;;4885227;29;20041;-82
2023/07/14 09:47:35;;;;;;;;;;;29.60;70.20;;;;;;4870237;29;20486;-82
2023/07/14 09:50:01;;;;;;;7.53;2.22;;;29.60;70.40;;;;;;4886615;29;19942;-82
2023/07/14 09:52:28;;;;;;;4.65;1.70;;;29.60;67.80;;;;;;4885790;29;20036;-81
2023/07/14 09:54:57;;;;;;;4.03;1.48;;;29.50;68.10;;;;;;4885277;29;20036;-82
2023/07/14 17:18:41;;;;;;;7.10;2.13;;;34.50;53.20;;;;;;4838756;29;20093;-82
2023/07/14 17:21:09;;;;;;;8.68;2.42;;;34.50;53.00;;;;;;4841584;29;20034;-82
2023/07/14 17:23:37;;;;;;;4.68;3.00;;;34.50;52.80;;;;;;4846255;29;20113;-83
2023/07/14 17:26:04;;;;;;;11.48;2.85;;;34.50;53.30;;;;;;4844767;29;20041;-84
2023/07/14 17:28:31;;;;;;;4.03;2.35;;;34.50;53.00;;;;;;4828352;29;20034;-84
2023/07/14 17:30:58;;;;;;;6.60;2.40;;;34.40;52.40;;;;;;4844417;23;20119;-85
2023/07/14 17:33:28;;;;;;;9.73;2.53;;;34.40;52.80;;;;;;4812768;29;20082;-84
2023/07/14 17:35:57;;;;;;;2.92;1.85;;;34.20;52.20;;;;;;4812660;29;20094;-83
2023/07/14 17:38:29;;;;;;;4.22;2.25;;;34.10;52.20;;;;;;4827714;29;20041;-82
2023/07/14 17:40:55;;;;;;;7.28;2.28;;;34.00;52.50;;;;;;4814269;29;20035;-84
2023/07/14 17:43:33;;;;;;;5.30;2.20;;;33.80;52.60;;;;;;4825317;29;20026;-84
2023/07/14 17:45:59;;;;;;;4.28;2.17;;;33.70;53.20;;;;;;4821520;29;20038;-85
2023/07/14 17:48:25;;;;;;;5.78;2.10;;;33.60;53.40;;;;;;4809321;29;20093;-86
2023/07/14 17:50:53;;;;;;;9.90;2.33;;;33.50;53.70;;;;;;4826395;29;20034;-85
2023/07/14 17:53:25;;;;;;;7.95;2.05;;;33.50;54.30;;;;;;4809773;29;20030;-85
2023/07/14 17:55:54;;;;;;;4.32;2.22;;;33.30;54.40;;;;;;4805903;29;20038;-84
2023/07/14 17:58:24;;;;;;;9.52;3.00;;;33.20;54.60;;;;;;4797501;29;20038;-85
2023/07/14 18:00:53;;;;;;;6.60;2.88;;;33.10;54.90;;;;;;4798073;29;20087;-84
2023/07/14 18:03:31;;;;;;;4.45;2.22;;;33.00;54.70;;;;;;4808798;29;20031;-84
2023/07/14 18:05:58;;;;;;;11.73;3.25;;;32.90;55.20;;;;;;4807716;29;20065;-84
2023/07/14 18:08:25;;;;;;;7.43;2.60;;;32.80;55.70;;;;;;4821186;29;20045;-85
2023/07/14 18:10:56;;;;;;;8.63;2.55;;;32.80;55.70;;;;;;4836180;29;20045;-84
2023/07/14 18:13:29;;;;;;;9.15;2.60;;;32.80;56.30;;;;;;4835580;29;20039;-83
2023/07/14 18:15:56;;;;;;;11.98;3.22;;;32.70;56.40;;;;;;4814609;29;20121;-83
2023/07/14 18:18:23;;;;;;;7.43;2.40;;;32.60;56.40;;;;;;4811463;29;20022;-84
2023/07/14 18:21:00;;;;;;;28.38;3.97;;;32.60;56.40;;;;;;4808481;29;20065;-83
2023/07/14 18:23:28;;;;;;;;;;;32.60;56.80;;;;;;4825632;29;20175;-83
2023/07/14 18:25:54;;;;;;;14.77;2.63;;;32.40;57.40;;;;;;4824563;29;19960;-83
2023/07/14 18:28:24;;;;;;;10.60;2.70;;;32.30;57.40;;;;;;4808780;29;20034;-83
2023/07/14 18:30:50;;;;;;;7.90;2.72;;;32.20;57.60;;;;;;4808377;29;20076;-83
2023/07/14 18:33:23;;;;;;;11.13;3.78;;;32.20;57.90;;;;;;4807993;29;20062;-85
2023/07/14 18:35:55;;;;;;;5.53;2.13;;;32.20;58.10;;;;;;4784167;29;20045;-86
2023/07/14 18:38:26;;;;;;;6.88;2.42;;;32.10;58.30;;;;;;4789013;29;20514;-86
2023/07/14 18:40:58;;;;;;;8.15;2.88;;;32.00;58.70;;;;;;4803910;29;20087;-85
2023/07/14 18:43:34;;;;;;;12.77;2.85;;;32.00;59.00;;;;;;4824529;29;20022;-82
2023/07/14 18:46:02;;;;;;;7.22;2.42;;;31.80;59.20;;;;;;4807063;29;20031;-83
2023/07/14 18:48:29;;;;;;;12.35;3.28;;;31.70;59.40;;;;;;4790193;29;20039;-83
2023/07/14 18:51:07;;;;;;;8.07;2.90;;;31.60;59.80;;;;;;4819666;29;20038;-83
2023/07/14 18:53:34;;;;;;;10.50;2.97;;;31.60;60.10;;;;;;4794679;29;20377;-83
2023/07/14 18:56:01;;;;;;;9.30;2.75;;;31.50;60.70;;;;;;4806012;29;20078;-83
2023/07/14 18:58:28;;;;;;;9.85;2.90;;;31.40;60.60;;;;;;4792807;29;20026;-84
2023/07/14 19:00:58;;;;;;;8.95;2.50;;;31.40;60.90;;;;;;4807256;29;20079;-83
2023/07/14 19:03:27;;;;;;;13.18;3.15;;;31.30;61.60;;;;;;4807214;29;20038;-82
2023/07/14 19:05:55;;;;;;;8.25;3.38;;;31.20;61.80;;;;;;4807740;29;20038;-83
2023/07/14 19:08:22;;;;;;;11.20;4.50;;;31.10;62.00;;;;;;4813236;29;20378;-83
2023/07/14 19:10:56;;;;;;;14.98;6.40;;;31.10;62.80;;;;;;4807084;29;20030;-83
2023/07/14 19:13:23;;;;;;;11.05;4.78;;;31.00;63.50;;;;;;4807573;29;20042;-82
2023/07/14 19:15:50;;;;;;;9.43;4.13;;;30.90;63.40;;;;;;4819472;29;20034;-83
2023/07/14 19:18:22;;;;;;;8.55;4.13;;;30.80;63.50;;;;;;4807333;29;20038;-83
2023/07/14 19:21:10;;;;;;;12.48;5.93;;;30.70;63.80;;;;;;4790246;29;20062;-86
2023/07/14 19:23:35;;;;;;;9.73;5.18;;;30.70;63.90;;;;;;4799438;29;20042;-83
2023/07/14 19:26:03;;;;;;;9.90;4.35;;;30.70;64.60;;;;;;4807121;29;20487;-83
2023/07/14 19:28:30;;;;;;;7.00;3.53;;;30.60;65.00;;;;;;4798635;29;20034;-83
2023/07/14 19:30:58;;;;;;;6.20;3.83;;;30.60;65.30;;;;;;4787960;29;20038;-82
2023/07/14 19:33:29;;;;;;;7.63;3.63;;;30.50;65.50;;;;;;4806248;29;20054;-84
2023/07/14 19:35:57;;;;;;;7.63;4.25;;;30.40;65.00;;;;;;4803620;29;20042;-85
2023/07/14 19:38:26;;;;;;;6.22;4.03;;;30.40;65.00;;;;;;4824051;29;20031;-84
2023/07/14 19:40:58;;;;;;;33.58;26.88;;;30.30;65.30;;;;;;4792502;29;20038;-83
2023/07/14 19:43:27;;;;;;;11.32;5.60;;;30.40;65.90;;;;;;4823387;29;20496;-83
2023/07/14 19:45:57;;;;;;;14.25;5.22;;;30.30;65.90;;;;;;4805921;29;20030;-83
2023/07/14 19:48:25;;;;;;;11.35;5.65;;;30.20;66.30;;;;;;4792050;29;20042;-83
2023/07/14 19:50:56;;;;;;;15.80;5.45;;;30.00;66.30;;;;;;4807201;29;20034;-83
2023/07/14 19:53:27;;;;;;;10.23;5.63;;;30.00;66.70;;;;;;4807473;29;20050;-83
2023/07/14 19:55:54;;;;;;;9.52;5.35;;;30.00;67.00;;;;;;4791814;29;20487;-83
2023/07/14 19:58:20;;;;;;;10.50;5.15;;;29.90;67.20;;;;;;4806840;29;20079;-83
2023/07/14 20:00:49;;;;;;;11.93;4.80;;;29.90;67.40;;;;;;4805158;29;20484;-83
2023/07/14 20:03:37;;;;;;;11.32;5.78;;;29.80;67.70;;;;;;4823632;29;20027;-83
2023/07/14 20:06:03;;;;;;;7.32;5.22;;;29.70;68.10;;;;;;4798209;29;20498;-83
2023/07/14 20:08:29;;;;;;;10.50;5.93;;;29.70;68.40;;;;;;4823439;29;20082;-83
2023/07/14 20:11:01;;;;;;;19.70;5.38;;;29.70;69.40;;;;;;4790730;29;20389;-84
2023/07/14 20:13:29;;;;;;;9.93;6.70;;;29.60;68.90;;;;;;4821829;29;20113;-83
2023/07/14 20:15:57;;;;;;;15.48;6.90;;;29.60;69.10;;;;;;4813330;29;20034;-83
2023/07/14 20:18:29;;;;;;;13.45;7.50;;;29.50;69.50;;;;;;4793348;29;20031;-83